KFMN/FMN METAR and TAF weather

Enter ICAO airport designator
Station Type Date Time Source
KFMN METAR 2019/12/12 16:53 UTC NOAA

KFMN 121653Z 10004KT 10SM CLR M01/M05 A3030 RMK AO2 SLP287 T10061050


Station Type Date Time Source
KFMN Decoded METAR 2019/12/12 16:53 UTC NOAA

FARMINGTON FOUR CORNERS, NM, United States (KFMN) 36-45N 108-14W 1685M
Dec 12, 2019 - 11:53 AM EST / 2019.12.12 1653 UTC
Wind: from the E (100 degrees) at 5 MPH (4 KT):0
Visibility: 10 mile(s):0
Sky conditions: clear
Temperature: 30.9 F (-0.6 C)
Windchill: 26 F (-3 C):1
Dew Point: 23.0 F (-5.0 C)
Relative Humidity: 72%
Pressure (altimeter): 30.3 in. Hg (1026 hPa)
ob: KFMN 121653Z 10004KT 10SM CLR M01/M05 A3030 RMK AO2 SLP287 T10061050
cycle: 17

Station Type Date Time Source
KFMN TAF 2019/12/12 12:42 UTC NOAA

TAF KFMN 121140Z 1212/1312 08006KT P6SM SCT250
FM122000 29008KT P6SM FEW090 SCT250
FM130200 32005KT P6SM SCT080 SCT200

Example: see airport list